sensor_id;sensor_type;location;lat;lon;timestamp;temperature;humidity
27697;DHT22;15105;56.514;21.002;2022-07-10T00:01:30;15.10;99.90
27697;DHT22;15105;56.514;21.002;2022-07-10T00:03:57;15.10;99.90
27697;DHT22;15105;56.514;21.002;2022-07-10T00:06:25;15.10;99.90
27697;DHT22;15105;56.514;21.002;2022-07-10T00:08:51;15.10;99.90
27697;DHT22;15105;56.514;21.002;2022-07-10T00:11:18;15.10;99.90
27697;DHT22;15105;56.514;21.002;2022-07-10T00:13:45;15.10;99.90
27697;DHT22;15105;56.514;21.002;2022-07-10T00:16:12;15.10;99.90
27697;DHT22;15105;56.514;21.002;2022-07-10T00:18:39;15.10;99.90
27697;DHT22;15105;56.514;21.002;2022-07-10T00:21:07;15.00;99.90
27697;DHT22;15105;56.514;21.002;2022-07-10T00:23:34;15.00;99.90
27697;DHT22;15105;56.514;21.002;2022-07-10T00:26:02;15.00;99.90
27697;DHT22;15105;56.514;21.002;2022-07-10T00:28:30;15.00;99.90
27697;DHT22;15105;56.514;21.002;2022-07-10T00:30:57;14.90;99.90
27697;DHT22;15105;56.514;21.002;2022-07-10T00:33:24;14.90;99.90
27697;DHT22;15105;56.514;21.002;2022-07-10T00:35:51;15.00;99.90
27697;DHT22;15105;56.514;21.002;2022-07-10T00:38:18;15.00;99.90
27697;DHT22;15105;56.514;21.002;2022-07-10T00:40:45;15.00;99.90
27697;DHT22;15105;56.514;21.002;2022-07-10T00:43:12;14.90;99.90
27697;DHT22;15105;56.514;21.002;2022-07-10T00:45:39;14.80;99.90
27697;DHT22;15105;56.514;21.002;2022-07-10T00:48:06;14.80;99.90
27697;DHT22;15105;56.514;21.002;2022-07-10T00:50:33;14.80;99.90
27697;DHT22;15105;56.514;21.002;2022-07-10T00:53:01;14.80;99.90
27697;DHT22;15105;56.514;21.002;2022-07-10T00:55:30;14.80;99.90
27697;DHT22;15105;56.514;21.002;2022-07-10T00:57:58;14.80;99.90
27697;DHT22;15105;56.514;21.002;2022-07-10T01:00:25;14.80;99.90
27697;DHT22;15105;56.514;21.002;2022-07-10T01:02:53;14.80;99.90
27697;DHT22;15105;56.514;21.002;2022-07-10T01:05:21;14.70;99.90
27697;DHT22;15105;56.514;21.002;2022-07-10T01:07:48;14.70;99.90
27697;DHT22;15105;56.514;21.002;2022-07-10T01:10:15;14.70;99.90
27697;DHT22;15105;56.514;21.002;2022-07-10T01:12:42;14.80;99.90
27697;DHT22;15105;56.514;21.002;2022-07-10T01:15:09;14.80;99.90
27697;DHT22;15105;56.514;21.002;2022-07-10T01:17:37;14.80;99.90
27697;DHT22;15105;56.514;21.002;2022-07-10T01:20:09;14.80;99.90
27697;DHT22;15105;56.514;21.002;2022-07-10T01:22:36;14.80;99.90
27697;DHT22;15105;56.514;21.002;2022-07-10T01:25:04;14.80;99.90
27697;DHT22;15105;56.514;21.002;2022-07-10T01:27:32;14.80;99.90
27697;DHT22;15105;56.514;21.002;2022-07-10T01:29:59;14.80;99.90
27697;DHT22;15105;56.514;21.002;2022-07-10T01:32:27;14.80;99.90
27697;DHT22;15105;56.514;21.002;2022-07-10T01:34:54;14.70;99.90
27697;DHT22;15105;56.514;21.002;2022-07-10T01:37:21;14.70;99.90
27697;DHT22;15105;56.514;21.002;2022-07-10T01:39:48;14.70;99.90
27697;DHT22;15105;56.514;21.002;2022-07-10T01:42:15;14.70;99.90
27697;DHT22;15105;56.514;21.002;2022-07-10T01:44:42;14.70;99.90
27697;DHT22;15105;56.514;21.002;2022-07-10T01:47:09;14.70;99.90
27697;DHT22;15105;56.514;21.002;2022-07-10T01:49:36;14.70;99.90
27697;DHT22;15105;56.514;21.002;2022-07-10T01:52:04;14.70;99.90
27697;DHT22;15105;56.514;21.002;2022-07-10T01:54:32;14.70;99.90
27697;DHT22;15105;56.514;21.002;2022-07-10T01:56:59;14.70;99.90
27697;DHT22;15105;56.514;21.002;2022-07-10T01:59:26;14.70;99.90
27697;DHT22;15105;56.514;21.002;2022-07-10T02:01:53;14.70;99.90
27697;DHT22;15105;56.514;21.002;2022-07-10T02:04:20;14.60;99.90
27697;DHT22;15105;56.514;21.002;2022-07-10T02:07:05;14.60;99.90
27697;DHT22;15105;56.514;21.002;2022-07-10T02:09:32;14.60;99.90
27697;DHT22;15105;56.514;21.002;2022-07-10T02:11:59;14.60;99.90
27697;DHT22;15105;56.514;21.002;2022-07-10T02:14:26;14.50;99.90
27697;DHT22;15105;56.514;21.002;2022-07-10T02:16:53;14.50;99.90
27697;DHT22;15105;56.514;21.002;2022-07-10T02:19:21;14.50;99.90
27697;DHT22;15105;56.514;21.002;2022-07-10T02:21:48;14.50;99.90
27697;DHT22;15105;56.514;21.002;2022-07-10T02:24:15;14.30;99.90
27697;DHT22;15105;56.514;21.002;2022-07-10T02:26:42;14.30;99.90
27697;DHT22;15105;56.514;21.002;2022-07-10T02:29:09;14.30;99.90
27697;DHT22;15105;56.514;21.002;2022-07-10T02:31:36;14.30;99.90
27697;DHT22;15105;56.514;21.002;2022-07-10T02:34:11;14.30;99.90
27697;DHT22;15105;56.514;21.002;2022-07-10T02:36:39;14.30;99.90
27697;DHT22;15105;56.514;21.002;2022-07-10T02:39:07;14.20;99.90
27697;DHT22;15105;56.514;21.002;2022-07-10T02:41:35;14.20;99.90
27697;DHT22;15105;56.514;21.002;2022-07-10T02:44:04;14.20;99.90
27697;DHT22;15105;56.514;21.002;2022-07-10T02:46:31;14.20;99.90
27697;DHT22;15105;56.514;21.002;2022-07-10T02:48:59;14.20;99.90
27697;DHT22;15105;56.514;21.002;2022-07-10T02:51:25;14.20;99.90
27697;DHT22;15105;56.514;21.002;2022-07-10T02:53:52;14.30;99.90
27697;DHT22;15105;56.514;21.002;2022-07-10T02:56:19;14.40;99.90
27697;DHT22;15105;56.514;21.002;2022-07-10T02:58:46;14.40;99.90
27697;DHT22;15105;56.514;21.002;2022-07-10T03:01:14;14.40;99.90
27697;DHT22;15105;56.514;21.002;2022-07-10T03:03:41;14.40;99.90
27697;DHT22;15105;56.514;21.002;2022-07-10T03:06:08;14.30;99.90
27697;DHT22;15105;56.514;21.002;2022-07-10T03:08:35;14.30;99.90
27697;DHT22;15105;56.514;21.002;2022-07-10T03:11:03;14.30;99.90
27697;DHT22;15105;56.514;21.002;2022-07-10T03:13:30;14.30;99.90
27697;DHT22;15105;56.514;21.002;2022-07-10T03:15:57;14.40;99.90
27697;DHT22;15105;56.514;21.002;2022-07-10T03:18:24;14.40;99.90
27697;DHT22;15105;56.514;21.002;2022-07-10T03:20:51;14.50;99.90
27697;DHT22;15105;56.514;21.002;2022-07-10T03:23:18;14.50;99.90
27697;DHT22;15105;56.514;21.002;2022-07-10T03:25:45;14.60;99.90
27697;DHT22;15105;56.514;21.002;2022-07-10T03:28:12;14.80;99.90
27697;DHT22;15105;56.514;21.002;2022-07-10T03:30:39;14.90;99.90
27697;DHT22;15105;56.514;21.002;2022-07-10T03:33:06;15.10;99.90
27697;DHT22;15105;56.514;21.002;2022-07-10T03:35:33;15.30;99.90
27697;DHT22;15105;56.514;21.002;2022-07-10T03:38:00;15.50;99.90
27697;DHT22;15105;56.514;21.002;2022-07-10T03:40:27;15.70;99.90
27697;DHT22;15105;56.514;21.002;2022-07-10T03:42:54;15.90;99.90
27697;DHT22;15105;56.514;21.002;2022-07-10T03:45:21;16.10;99.90
27697;DHT22;15105;56.514;21.002;2022-07-10T03:47:48;16.20;99.90
27697;DHT22;15105;56.514;21.002;2022-07-10T03:50:15;16.60;99.90
27697;DHT22;15105;56.514;21.002;2022-07-10T03:52:42;17.30;99.90
27697;DHT22;15105;56.514;21.002;2022-07-10T03:55:11;17.40;99.90
27697;DHT22;15105;56.514;21.002;2022-07-10T03:57:38;17.30;99.90
27697;DHT22;15105;56.514;21.002;2022-07-10T04:00:21;17.10;99.90
27697;DHT22;15105;56.514;21.002;2022-07-10T04:03:01;17.00;99.90
27697;DHT22;15105;56.514;21.002;2022-07-10T04:05:28;16.90;99.90
27697;DHT22;15105;56.514;21.002;2022-07-10T04:07:56;16.80;99.90
27697;DHT22;15105;56.514;21.002;2022-07-10T04:10:25;16.60;99.90
27697;DHT22;15105;56.514;21.002;2022-07-10T04:12:53;16.40;99.90
27697;DHT22;15105;56.514;21.002;2022-07-10T04:15:20;16.20;99.90
27697;DHT22;15105;56.514;21.002;2022-07-10T04:17:48;16.10;99.90
27697;DHT22;15105;56.514;21.002;2022-07-10T04:20:16;15.80;99.90
27697;DHT22;15105;56.514;21.002;2022-07-10T04:22:43;15.40;99.90
27697;DHT22;15105;56.514;21.002;2022-07-10T04:25:11;15.20;99.90
27697;DHT22;15105;56.514;21.002;2022-07-10T04:27:39;15.00;99.90
27697;DHT22;15105;56.514;21.002;2022-07-10T04:30:06;14.90;99.90
27697;DHT22;15105;56.514;21.002;2022-07-10T04:32:34;14.80;99.90
27697;DHT22;15105;56.514;21.002;2022-07-10T04:35:01;14.80;99.90
27697;DHT22;15105;56.514;21.002;2022-07-10T04:37:28;14.70;99.90
27697;DHT22;15105;56.514;21.002;2022-07-10T04:39:55;14.60;99.90
27697;DHT22;15105;56.514;21.002;2022-07-10T04:42:25;14.50;99.90
27697;DHT22;15105;56.514;21.002;2022-07-10T04:44:53;14.30;99.90
27697;DHT22;15105;56.514;21.002;2022-07-10T04:47:20;14.30;99.90
27697;DHT22;15105;56.514;21.002;2022-07-10T04:49:47;14.30;99.90
27697;DHT22;15105;56.514;21.002;2022-07-10T04:52:14;14.30;99.90
27697;DHT22;15105;56.514;21.002;2022-07-10T04:54:42;14.20;99.90
27697;DHT22;15105;56.514;21.002;2022-07-10T04:57:09;14.20;99.90
27697;DHT22;15105;56.514;21.002;2022-07-10T04:59:36;14.20;99.90
27697;DHT22;15105;56.514;21.002;2022-07-10T05:02:03;14.10;99.90
27697;DHT22;15105;56.514;21.002;2022-07-10T05:04:30;14.10;99.90
27697;DHT22;15105;56.514;21.002;2022-07-10T05:06:58;13.90;99.90
27697;DHT22;15105;56.514;21.002;2022-07-10T05:09:25;13.90;99.90
27697;DHT22;15105;56.514;21.002;2022-07-10T05:11:52;13.90;99.90
27697;DHT22;15105;56.514;21.002;2022-07-10T05:14:19;14.00;99.90
27697;DHT22;15105;56.514;21.002;2022-07-10T05:16:46;14.00;99.90
27697;DHT22;15105;56.514;21.002;2022-07-10T05:19:13;14.10;99.90
27697;DHT22;15105;56.514;21.002;2022-07-10T05:21:40;14.20;99.90
27697;DHT22;15105;56.514;21.002;2022-07-10T05:24:10;14.30;99.90
27697;DHT22;15105;56.514;21.002;2022-07-10T05:26:37;14.40;99.90
27697;DHT22;15105;56.514;21.002;2022-07-10T05:29:04;14.50;99.90
27697;DHT22;15105;56.514;21.002;2022-07-10T05:31:31;14.60;99.90
27697;DHT22;15105;56.514;21.002;2022-07-10T05:33:59;14.70;99.90
27697;DHT22;15105;56.514;21.002;2022-07-10T05:36:26;14.80;99.90
27697;DHT22;15105;56.514;21.002;2022-07-10T05:38:53;14.90;99.90
27697;DHT22;15105;56.514;21.002;2022-07-10T05:41:20;15.10;99.90
27697;DHT22;15105;56.514;21.002;2022-07-10T05:43:47;15.20;99.90
27697;DHT22;15105;56.514;21.002;2022-07-10T05:46:14;15.30;99.90
27697;DHT22;15105;56.514;21.002;2022-07-10T05:48:41;15.40;99.90
27697;DHT22;15105;56.514;21.002;2022-07-10T05:51:09;15.50;99.90
27697;DHT22;15105;56.514;21.002;2022-07-10T05:53:56;15.60;99.90
27697;DHT22;15105;56.514;21.002;2022-07-10T05:56:23;15.80;99.90
27697;DHT22;15105;56.514;21.002;2022-07-10T05:58:50;15.90;99.90
27697;DHT22;15105;56.514;21.002;2022-07-10T06:01:17;16.00;99.90
27697;DHT22;15105;56.514;21.002;2022-07-10T06:03:44;16.10;99.90
27697;DHT22;15105;56.514;21.002;2022-07-10T06:06:12;16.30;99.90
27697;DHT22;15105;56.514;21.002;2022-07-10T06:08:43;16.50;99.90
27697;DHT22;15105;56.514;21.002;2022-07-10T06:11:11;16.70;99.90
27697;DHT22;15105;56.514;21.002;2022-07-10T06:13:39;16.80;99.90
27697;DHT22;15105;56.514;21.002;2022-07-10T06:16:10;17.00;99.90
27697;DHT22;15105;56.514;21.002;2022-07-10T06:26:47;17.10;99.90
27697;DHT22;15105;56.514;21.002;2022-07-10T06:29:14;17.10;99.90
27697;DHT22;15105;56.514;21.002;2022-07-10T06:31:41;17.00;99.90
27697;DHT22;15105;56.514;21.002;2022-07-10T06:34:08;16.90;99.90
27697;DHT22;15105;56.514;21.002;2022-07-10T06:36:35;16.80;99.90
27697;DHT22;15105;56.514;21.002;2022-07-10T06:39:02;16.80;99.90
27697;DHT22;15105;56.514;21.002;2022-07-10T06:41:29;16.80;99.90
27697;DHT22;15105;56.514;21.002;2022-07-10T06:43:56;16.70;99.90
27697;DHT22;15105;56.514;21.002;2022-07-10T06:46:23;16.70;99.90
27697;DHT22;15105;56.514;21.002;2022-07-10T06:48:50;16.80;99.90
27697;DHT22;15105;56.514;21.002;2022-07-10T06:51:18;16.80;99.90
27697;DHT22;15105;56.514;21.002;2022-07-10T06:53:45;16.80;99.90
27697;DHT22;15105;56.514;21.002;2022-07-10T06:56:12;16.90;99.90
27697;DHT22;15105;56.514;21.002;2022-07-10T06:58:42;16.90;99.90
27697;DHT22;15105;56.514;21.002;2022-07-10T07:01:09;16.90;99.90
27697;DHT22;15105;56.514;21.002;2022-07-10T07:03:37;17.00;99.90
27697;DHT22;15105;56.514;21.002;2022-07-10T07:06:04;17.00;99.90
27697;DHT22;15105;56.514;21.002;2022-07-10T07:08:32;17.00;99.90
27697;DHT22;15105;56.514;21.002;2022-07-10T07:10:59;17.10;99.90
27697;DHT22;15105;56.514;21.002;2022-07-10T07:13:26;17.20;99.90
27697;DHT22;15105;56.514;21.002;2022-07-10T07:15:53;17.40;99.90
27697;DHT22;15105;56.514;21.002;2022-07-10T07:18:26;17.30;99.90
27697;DHT22;15105;56.514;21.002;2022-07-10T07:21:00;17.30;99.90
27697;DHT22;15105;56.514;21.002;2022-07-10T07:23:59;17.40;99.90
27697;DHT22;15105;56.514;21.002;2022-07-10T07:26:26;17.60;99.90
27697;DHT22;15105;56.514;21.002;2022-07-10T07:28:53;17.70;99.90
27697;DHT22;15105;56.514;21.002;2022-07-10T07:31:20;17.90;99.90
27697;DHT22;15105;56.514;21.002;2022-07-10T07:33:48;18.10;99.90
27697;DHT22;15105;56.514;21.002;2022-07-10T07:36:15;18.30;99.90
27697;DHT22;15105;56.514;21.002;2022-07-10T07:38:46;18.50;99.90
27697;DHT22;15105;56.514;21.002;2022-07-10T07:41:13;18.60;99.90
27697;DHT22;15105;56.514;21.002;2022-07-10T07:43:41;18.70;99.90
27697;DHT22;15105;56.514;21.002;2022-07-10T07:46:09;18.90;99.90
27697;DHT22;15105;56.514;21.002;2022-07-10T07:51:27;19.10;99.90
27697;DHT22;15105;56.514;21.002;2022-07-10T07:53:54;19.00;99.90
27697;DHT22;15105;56.514;21.002;2022-07-10T07:56:22;19.10;99.90
27697;DHT22;15105;56.514;21.002;2022-07-10T07:58:49;19.30;99.90
27697;DHT22;15105;56.514;21.002;2022-07-10T08:01:16;19.50;99.90
27697;DHT22;15105;56.514;21.002;2022-07-10T08:09:22;19.60;99.90
27697;DHT22;15105;56.514;21.002;2022-07-10T08:11:49;19.70;99.90
27697;DHT22;15105;56.514;21.002;2022-07-10T08:14:16;19.90;99.90
27697;DHT22;15105;56.514;21.002;2022-07-10T08:16:43;20.20;99.90
27697;DHT22;15105;56.514;21.002;2022-07-10T08:19:10;20.20;99.90
27697;DHT22;15105;56.514;21.002;2022-07-10T08:21:38;20.50;99.90
27697;DHT22;15105;56.514;21.002;2022-07-10T08:24:08;20.60;99.90
27697;DHT22;15105;56.514;21.002;2022-07-10T08:26:35;20.40;99.90
27697;DHT22;15105;56.514;21.002;2022-07-10T08:29:03;20.30;99.90
27697;DHT22;15105;56.514;21.002;2022-07-10T08:31:30;20.40;99.90
27697;DHT22;15105;56.514;21.002;2022-07-10T08:33:57;20.40;99.90
27697;DHT22;15105;56.514;21.002;2022-07-10T08:36:24;20.20;99.90
27697;DHT22;15105;56.514;21.002;2022-07-10T08:39:11;20.10;99.90
27697;DHT22;15105;56.514;21.002;2022-07-10T08:41:39;19.80;99.90
27697;DHT22;15105;56.514;21.002;2022-07-10T08:44:09;19.60;99.90
27697;DHT22;15105;56.514;21.002;2022-07-10T08:46:35;19.40;99.90
27697;DHT22;15105;56.514;21.002;2022-07-10T08:49:07;19.40;99.90
27697;DHT22;15105;56.514;21.002;2022-07-10T08:51:58;19.60;99.90
27697;DHT22;15105;56.514;21.002;2022-07-10T08:54:31;19.80;99.90
27697;DHT22;15105;56.514;21.002;2022-07-10T08:57:00;19.80;99.90
27697;DHT22;15105;56.514;21.002;2022-07-10T08:59:29;19.70;99.90
27697;DHT22;15105;56.514;21.002;2022-07-10T09:01:58;19.40;99.90
27697;DHT22;15105;56.514;21.002;2022-07-10T09:04:26;19.40;99.90
27697;DHT22;15105;56.514;21.002;2022-07-10T09:06:54;19.30;99.90
27697;DHT22;15105;56.514;21.002;2022-07-10T09:09:22;19.40;99.90
27697;DHT22;15105;56.514;21.002;2022-07-10T09:11:56;19.60;99.90
27697;DHT22;15105;56.514;21.002;2022-07-10T09:14:26;19.60;99.90
27697;DHT22;15105;56.514;21.002;2022-07-10T09:17:01;19.80;99.90
27697;DHT22;15105;56.514;21.002;2022-07-10T09:19:29;19.80;99.90
27697;DHT22;15105;56.514;21.002;2022-07-10T09:22:08;19.90;99.90
27697;DHT22;15105;56.514;21.002;2022-07-10T09:24:45;19.80;99.90
27697;DHT22;15105;56.514;21.002;2022-07-10T09:27:14;19.90;99.90
27697;DHT22;15105;56.514;21.002;2022-07-10T09:29:52;20.10;99.90
27697;DHT22;15105;56.514;21.002;2022-07-10T09:32:25;20.00;99.90
27697;DHT22;15105;56.514;21.002;2022-07-10T09:34:53;20.30;99.90
27697;DHT22;15105;56.514;21.002;2022-07-10T09:37:41;20.40;99.90
27697;DHT22;15105;56.514;21.002;2022-07-10T09:40:15;20.40;99.90
27697;DHT22;15105;56.514;21.002;2022-07-10T09:42:43;20.40;99.90
27697;DHT22;15105;56.514;21.002;2022-07-10T09:52:57;20.90;99.90
27697;DHT22;15105;56.514;21.002;2022-07-10T09:55:26;20.80;99.90
27697;DHT22;15105;56.514;21.002;2022-07-10T09:57:56;20.70;99.90
27697;DHT22;15105;56.514;21.002;2022-07-10T10:00:25;20.50;99.90
27697;DHT22;15105;56.514;21.002;2022-07-10T10:02:57;20.60;99.90
27697;DHT22;15105;56.514;21.002;2022-07-10T10:08:09;20.30;99.90
27697;DHT22;15105;56.514;21.002;2022-07-10T10:10:43;20.20;99.90
27697;DHT22;15105;56.514;21.002;2022-07-10T10:13:11;20.20;99.90
27697;DHT22;15105;56.514;21.002;2022-07-10T10:15:39;20.20;99.90
27697;DHT22;15105;56.514;21.002;2022-07-10T10:18:07;20.40;99.90
27697;DHT22;15105;56.514;21.002;2022-07-10T10:20:36;20.40;99.90
27697;DHT22;15105;56.514;21.002;2022-07-10T10:23:05;20.60;99.90
27697;DHT22;15105;56.514;21.002;2022-07-10T10:25:33;20.50;99.90
27697;DHT22;15105;56.514;21.002;2022-07-10T10:28:02;20.60;99.90
27697;DHT22;15105;56.514;21.002;2022-07-10T10:30:31;20.40;99.90
27697;DHT22;15105;56.514;21.002;2022-07-10T10:32:59;20.40;99.90
27697;DHT22;15105;56.514;21.002;2022-07-10T10:35:45;20.40;99.90
27697;DHT22;15105;56.514;21.002;2022-07-10T10:38:14;20.50;99.90
27697;DHT22;15105;56.514;21.002;2022-07-10T10:40:42;20.50;99.90
27697;DHT22;15105;56.514;21.002;2022-07-10T10:43:22;20.50;99.90
27697;DHT22;15105;56.514;21.002;2022-07-10T10:45:50;20.70;99.90
27697;DHT22;15105;56.514;21.002;2022-07-10T10:48:19;20.70;99.90
27697;DHT22;15105;56.514;21.002;2022-07-10T10:51:05;20.70;99.90
27697;DHT22;15105;56.514;21.002;2022-07-10T10:53:32;20.60;99.90
27697;DHT22;15105;56.514;21.002;2022-07-10T10:58:28;20.60;99.90
27697;DHT22;15105;56.514;21.002;2022-07-10T11:01:05;20.50;99.90
27697;DHT22;15105;56.514;21.002;2022-07-10T11:03:40;20.50;99.90
27697;DHT22;15105;56.514;21.002;2022-07-10T11:06:12;20.50;99.90
27697;DHT22;15105;56.514;21.002;2022-07-10T11:08:42;20.50;99.90
27697;DHT22;15105;56.514;21.002;2022-07-10T11:13:57;20.40;99.90
27697;DHT22;15105;56.514;21.002;2022-07-10T11:16:25;20.50;99.90
27697;DHT22;15105;56.514;21.002;2022-07-10T11:18:53;20.60;99.90
27697;DHT22;15105;56.514;21.002;2022-07-10T11:21:25;20.70;99.90
27697;DHT22;15105;56.514;21.002;2022-07-10T11:24:28;20.70;99.90
27697;DHT22;15105;56.514;21.002;2022-07-10T11:27:50;20.80;99.90
27697;DHT22;15105;56.514;21.002;2022-07-10T11:30:19;21.00;99.90
27697;DHT22;15105;56.514;21.002;2022-07-10T11:32:46;20.90;99.90
27697;DHT22;15105;56.514;21.002;2022-07-10T11:35:13;21.00;99.90
27697;DHT22;15105;56.514;21.002;2022-07-10T11:37:51;20.90;99.90
27697;DHT22;15105;56.514;21.002;2022-07-10T11:40:19;20.50;99.90
27697;DHT22;15105;56.514;21.002;2022-07-10T11:45:30;20.20;99.90
27697;DHT22;15105;56.514;21.002;2022-07-10T11:47:58;20.00;99.90
27697;DHT22;15105;56.514;21.002;2022-07-10T11:50:26;20.00;99.90
27697;DHT22;15105;56.514;21.002;2022-07-10T11:52:54;20.10;99.90
27697;DHT22;15105;56.514;21.002;2022-07-10T11:55:22;20.30;99.90
27697;DHT22;15105;56.514;21.002;2022-07-10T11:57:50;20.40;99.90
27697;DHT22;15105;56.514;21.002;2022-07-10T12:00:24;20.30;99.90
27697;DHT22;15105;56.514;21.002;2022-07-10T12:02:53;20.30;99.90
27697;DHT22;15105;56.514;21.002;2022-07-10T12:05:37;20.30;99.90
27697;DHT22;15105;56.514;21.002;2022-07-10T12:08:05;20.20;99.90
27697;DHT22;15105;56.514;21.002;2022-07-10T12:10:43;20.10;99.90
27697;DHT22;15105;56.514;21.002;2022-07-10T12:13:12;20.00;99.90
27697;DHT22;15105;56.514;21.002;2022-07-10T12:15:43;20.00;99.90
27697;DHT22;15105;56.514;21.002;2022-07-10T12:18:17;19.90;99.90
27697;DHT22;15105;56.514;21.002;2022-07-10T12:20:46;19.80;99.90
27697;DHT22;15105;56.514;21.002;2022-07-10T12:23:18;19.80;99.90
27697;DHT22;15105;56.514;21.002;2022-07-10T12:25:47;19.60;99.90
27697;DHT22;15105;56.514;21.002;2022-07-10T12:28:17;19.50;99.90
27697;DHT22;15105;56.514;21.002;2022-07-10T12:30:49;19.60;99.90
27697;DHT22;15105;56.514;21.002;2022-07-10T12:33:19;19.60;99.90
27697;DHT22;15105;56.514;21.002;2022-07-10T12:35:53;19.70;99.90
27697;DHT22;15105;56.514;21.002;2022-07-10T12:38:28;19.70;99.90
27697;DHT22;15105;56.514;21.002;2022-07-10T12:41:13;19.50;99.90
27697;DHT22;15105;56.514;21.002;2022-07-10T12:43:41;19.30;99.90
27697;DHT22;15105;56.514;21.002;2022-07-10T12:46:21;19.00;99.90
27697;DHT22;15105;56.514;21.002;2022-07-10T12:49:01;19.00;99.90
27697;DHT22;15105;56.514;21.002;2022-07-10T12:51:30;19.00;99.90
27697;DHT22;15105;56.514;21.002;2022-07-10T12:54:33;19.10;99.90
27697;DHT22;15105;56.514;21.002;2022-07-10T12:57:02;19.10;99.90
27697;DHT22;15105;56.514;21.002;2022-07-10T12:59:35;19.10;99.90
27697;DHT22;15105;56.514;21.002;2022-07-10T13:02:21;19.10;99.90
27697;DHT22;15105;56.514;21.002;2022-07-10T13:04:56;19.20;99.90
27697;DHT22;15105;56.514;21.002;2022-07-10T13:07:34;19.30;99.90
27697;DHT22;15105;56.514;21.002;2022-07-10T13:10:05;19.30;99.90
27697;DHT22;15105;56.514;21.002;2022-07-10T13:12:33;19.20;99.90
27697;DHT22;15105;56.514;21.002;2022-07-10T13:15:02;19.10;99.90
27697;DHT22;15105;56.514;21.002;2022-07-10T13:17:30;19.10;99.90
27697;DHT22;15105;56.514;21.002;2022-07-10T13:19:56;19.20;99.90
27697;DHT22;15105;56.514;21.002;2022-07-10T13:22:24;19.20;99.90
27697;DHT22;15105;56.514;21.002;2022-07-10T13:24:51;19.20;99.90
27697;DHT22;15105;56.514;21.002;2022-07-10T13:27:18;19.20;99.90
27697;DHT22;15105;56.514;21.002;2022-07-10T13:29:46;19.20;99.90
27697;DHT22;15105;56.514;21.002;2022-07-10T13:32:14;19.40;99.90
27697;DHT22;15105;56.514;21.002;2022-07-10T13:34:42;19.60;99.90
27697;DHT22;15105;56.514;21.002;2022-07-10T13:37:09;19.60;99.90
27697;DHT22;15105;56.514;21.002;2022-07-10T13:39:40;19.60;99.90
27697;DHT22;15105;56.514;21.002;2022-07-10T13:42:07;19.80;99.90
27697;DHT22;15105;56.514;21.002;2022-07-10T13:44:34;19.90;99.90
27697;DHT22;15105;56.514;21.002;2022-07-10T13:47:01;19.80;99.90
27697;DHT22;15105;56.514;21.002;2022-07-10T13:49:28;19.90;99.90
27697;DHT22;15105;56.514;21.002;2022-07-10T13:51:55;19.90;99.90
27697;DHT22;15105;56.514;21.002;2022-07-10T13:54:23;19.80;99.90
27697;DHT22;15105;56.514;21.002;2022-07-10T13:56:50;19.80;99.90
27697;DHT22;15105;56.514;21.002;2022-07-10T13:59:17;19.70;99.90
27697;DHT22;15105;56.514;21.002;2022-07-10T14:01:44;19.60;99.90
27697;DHT22;15105;56.514;21.002;2022-07-10T14:04:11;19.60;99.90
27697;DHT22;15105;56.514;21.002;2022-07-10T14:06:39;19.80;99.90
27697;DHT22;15105;56.514;21.002;2022-07-10T14:09:06;19.70;99.90
27697;DHT22;15105;56.514;21.002;2022-07-10T14:11:33;19.80;99.90
27697;DHT22;15105;56.514;21.002;2022-07-10T14:14:01;19.70;99.90
27697;DHT22;15105;56.514;21.002;2022-07-10T14:16:28;19.70;99.90
27697;DHT22;15105;56.514;21.002;2022-07-10T14:18:58;19.60;99.90
27697;DHT22;15105;56.514;21.002;2022-07-10T14:21:25;19.50;99.90
27697;DHT22;15105;56.514;21.002;2022-07-10T14:23:54;19.60;99.90
27697;DHT22;15105;56.514;21.002;2022-07-10T14:26:27;19.60;99.90
27697;DHT22;15105;56.514;21.002;2022-07-10T14:28:54;19.60;99.90
27697;DHT22;15105;56.514;21.002;2022-07-10T14:31:21;19.50;99.90
27697;DHT22;15105;56.514;21.002;2022-07-10T14:33:48;19.50;99.90
27697;DHT22;15105;56.514;21.002;2022-07-10T14:36:15;19.50;99.90
27697;DHT22;15105;56.514;21.002;2022-07-10T14:38:42;19.60;99.90
27697;DHT22;15105;56.514;21.002;2022-07-10T14:41:22;19.70;99.90
27697;DHT22;15105;56.514;21.002;2022-07-10T14:46:37;19.70;99.90
27697;DHT22;15105;56.514;21.002;2022-07-10T14:49:10;19.70;99.90
27697;DHT22;15105;56.514;21.002;2022-07-10T14:51:38;19.70;99.90
27697;DHT22;15105;56.514;21.002;2022-07-10T14:54:05;19.70;99.90
27697;DHT22;15105;56.514;21.002;2022-07-10T14:56:32;19.80;99.90
27697;DHT22;15105;56.514;21.002;2022-07-10T14:58:59;19.80;99.90
27697;DHT22;15105;56.514;21.002;2022-07-10T15:01:43;19.80;99.90
27697;DHT22;15105;56.514;21.002;2022-07-10T15:04:11;19.90;99.90
27697;DHT22;15105;56.514;21.002;2022-07-10T15:06:38;19.90;99.90
27697;DHT22;15105;56.514;21.002;2022-07-10T15:09:05;19.70;99.90
27697;DHT22;15105;56.514;21.002;2022-07-10T15:11:45;19.60;99.90
27697;DHT22;15105;56.514;21.002;2022-07-10T15:14:12;19.50;99.90
27697;DHT22;15105;56.514;21.002;2022-07-10T15:16:39;19.50;99.90
27697;DHT22;15105;56.514;21.002;2022-07-10T15:19:10;19.50;99.90
27697;DHT22;15105;56.514;21.002;2022-07-10T15:21:37;19.50;99.90
27697;DHT22;15105;56.514;21.002;2022-07-10T15:24:05;19.50;99.90
27697;DHT22;15105;56.514;21.002;2022-07-10T15:26:39;19.50;99.90
27697;DHT22;15105;56.514;21.002;2022-07-10T15:29:09;19.30;99.90
27697;DHT22;15105;56.514;21.002;2022-07-10T15:31:36;19.20;99.90
27697;DHT22;15105;56.514;21.002;2022-07-10T15:34:08;19.20;99.90
27697;DHT22;15105;56.514;21.002;2022-07-10T15:36:35;19.20;99.90
27697;DHT22;15105;56.514;21.002;2022-07-10T15:39:02;19.20;99.90
27697;DHT22;15105;56.514;21.002;2022-07-10T15:41:30;19.20;99.90
27697;DHT22;15105;56.514;21.002;2022-07-10T15:44:00;19.30;99.90
27697;DHT22;15105;56.514;21.002;2022-07-10T15:46:28;19.30;99.90
27697;DHT22;15105;56.514;21.002;2022-07-10T15:48:56;19.20;99.90
27697;DHT22;15105;56.514;21.002;2022-07-10T15:54:10;19.10;99.90
27697;DHT22;15105;56.514;21.002;2022-07-10T15:59:38;19.20;99.90
27697;DHT22;15105;56.514;21.002;2022-07-10T16:02:25;19.20;99.90
27697;DHT22;15105;56.514;21.002;2022-07-10T16:04:53;19.20;99.90
27697;DHT22;15105;56.514;21.002;2022-07-10T16:07:20;19.20;99.90
27697;DHT22;15105;56.514;21.002;2022-07-10T16:09:50;19.30;99.90
27697;DHT22;15105;56.514;21.002;2022-07-10T16:12:18;19.40;99.90